Terminal Aerodrome Forecast
Issued by NWS

Home | Current Version | Previous Version | Text Only | Print | Product List | Glossary On
Versions: 1 2 3 4 5 6 7 8 9 10 11 12 13
000
FTUS44 KLZK 292300
TAFLIT
TAF
KLIT 292339Z 3000/3024 17006KT P6SM VCTS SCT040CB BKN100
     FM300400 17005KT P6SM SCT100 BKN250
     FM301500 18007KT P6SM VCTS SCT035CB BKN250=

USA.gov is the U.S. government's official web portal to all federal, state and local government web resources and services.